Terminal Aerodrome Forecast
Issued by NWS Denver/Boulder, CO

Home | Current Version | Previous Version | Text Only | Print | Product List | Glossary On
Versions: 1 2 3 4 5 6 7 8 9 10 11 12 13 14 15 16 17 18 19 20 21 22 23 24 25 26 27 28 29 30 31 32 33 34 35 36
000
FTUS45 KBOU 282201 AAC
TAFDEN
TAF AMD
KDEN 282201Z 2822/2924 05010KT P6SM SCT050 SCT100
     FM282300 07015KT P6SM SCT050 BKN080
      TEMPO 2900/2903 VRB20G35KT -TSRA BKN050CB
     FM290300 08014G22KT P6SM VCTS SCT070CB BKN120
     FM290600 17010KT P6SM SCT070 BKN120
     FM290900 22010KT P6SM VCFG BKN010
     FM291600 09008KT P6SM SCT010 BKN030
     FM292000 12010KT P6SM SCT050 BKN080=

USA.gov is the U.S. government's official web portal to all federal, state and local government web resources and services.